CheckWX is a tool to help pilots better visualize weather data.  It is not intended as a substitute for an official pre-flight weather briefing.

15:30:12 UTC

KLRJ METAR
Le Mars Municipal Airport
Le Mars, Iowa, USA
Current

15 mins ago

KLRJ 201515Z AUTO 05009KT 10SM CLR 09/04 A3017 RMK AO2
Observed
May-20 @ 15:15 UTC
Wind
  • 050° at 9 KTS
Visibility
10 SM
Flight Rules
VFR
Cloud Levels
  • Clear skies
Temperature
C / 48°F
Dewpoint
C / 39°F
Humidity
71%
Altimeter
30.17" Hg
Pressure
1021.72 hPa
Previous

35 mins ago

KLRJ 201455Z AUTO 07007G13KT 10SM CLR 09/04 A3018 RMK AO2
Observed
May-20 @ 14:55 UTC
Wind
  • 070° at 7 KTS
  • Gusting to 13 KTS
Visibility
10 SM
Flight Rules
VFR
Cloud Levels
  • Clear skies
Temperature
C / 48°F
Dewpoint
C / 39°F
Humidity
71%
Altimeter
30.18" Hg
Pressure
1022.02 hPa
Previous

55 mins ago

KLRJ 201435Z AUTO 05008KT 10SM CLR 08/04 A3017 RMK AO2
Observed
May-20 @ 14:35 UTC
Wind
  • 050° at 8 KTS
Visibility
10 SM
Flight Rules
VFR
Cloud Levels
  • Clear skies
Temperature
C / 46°F
Dewpoint
C / 39°F
Humidity
76%
Altimeter
30.17" Hg
Pressure
1021.72 hPa